Aérodrome :
LOGIN :

S'inscrire | Disclaimer

   EN    FR    IT 

 










Légende :    VFR   VFR Marginal   IFR   IFR Intensif   IFR Très Intensif
Visi : 
Plafond : 
>= 8 km
>= 3000ft
5 à 8 km
1000 à 3000 ft
1500m à 5 km
500 à 1000 ft
800 à 1500m
200 à 500 ft
< 800m
< 200 ft
Symboles :   Orages  Brouillard  Fortes neiges  Fortes précipitations  Vent > 20 kt
SIGMETs :   Divers  Orages  Givrage  Turbulence  Onde Orograph.  Cendres Volcan.






- Altitude de l'aérodrome : 779 ft
- Code IATA : CMF


LFLB - Chambery / Aix-Les-Bains

DERNIER METAR :
  • 232130Z AUTO 05004KT CAVOK 17/15 Q1019

METARs EXPIRÉS :
  • 232100Z AUTO VRB02KT CAVOK 17/15 Q1019
  • 232030Z AUTO VRB03KT 9999 FEW052 SCT088 18/16 Q1019
  • 232000Z AUTO 02004KT 340V050 9999 SCT043 SCT090 BKN110 19/15 Q1018
  • 231930Z AUTO 03005KT 300V110 9999 BKN049/// BKN110/// BKN140/// ///TCU 20/15 Q1018
  • 231900Z AUTO 10007KT 070V160 9999 VCTS FEW042/// SCT084/// BKN110/// ///CB 20/15 Q1017 TEMPO NSW

TAF TAF LFLB
Valide du 23 à 15h jusqu'au 24 à 15h UTC


231400Z 2315/2415 VRB03KT CAVOK
TEMPO 2315/2321 -SHRA SCT033TCU
PROB40
TEMPO 2315/2318 VRB20G35KT 1500 TSRA BKN018CB
PROB40
TEMPO 2404/2408 3000 BR BKN012
TEMPO 2409/2415 4000 SHRA SCT030TCU
PROB40
TEMPO 2410/2412 VRB15G30KT 1500 TSRA SCT010 BKN020CB
PROB30
TEMPO 2410/2412 VRB20G45KT



MET'MAP, la Météo Aéronautique d'un coup d'oeil ! - Copyright ORBIFLY Décembre 2007 - Disclaimer

ORBIFLY MET'MAP TEAM :

Programmation & Développement : Alexandra Zaïnal
Sur une idée originale de : Baudouin d'Aumeries
Assistance à la programmation : Marc-Olivier Méhu
Soutien technique & logistique : Manuel Goepfert

Contact : metmap@orbifly.com




SOURCES & CREDITS :

   NOAA